createdAt,value
2023-02-09T00:01:47.408Z,12.43
2023-02-09T00:04:15.509Z,11.67
2023-02-09T00:06:44.531Z,14.07
2023-02-09T00:09:12.164Z,9.73
2023-02-09T00:11:57.441Z,9.20
2023-02-09T00:14:25.198Z,10.57
2023-02-09T00:16:53.034Z,12.30
2023-02-09T00:19:21.843Z,9.63
2023-02-09T00:21:50.829Z,11.77
2023-02-09T00:24:18.692Z,8.97
2023-02-09T00:26:46.613Z,10.27
2023-02-09T00:29:14.696Z,8.47
2023-02-09T00:31:42.399Z,11.27
2023-02-09T00:34:11.036Z,10.93
2023-02-09T00:36:38.677Z,12.93
2023-02-09T00:39:07.854Z,11.00
2023-02-09T00:41:52.905Z,14.43
2023-02-09T00:44:20.621Z,10.07
2023-02-09T00:46:48.964Z,10.60
2023-02-09T00:49:16.871Z,13.43
2023-02-09T00:51:44.559Z,12.57
2023-02-09T00:54:13.657Z,11.63
2023-02-09T00:56:41.340Z,10.13
2023-02-09T00:59:09.052Z,10.83
2023-02-09T01:01:37.028Z,10.23
2023-02-09T01:04:05.387Z,9.77
2023-02-09T01:06:33.224Z,9.27
2023-02-09T01:09:01.069Z,13.23
2023-02-09T01:11:30.424Z,13.20
2023-02-09T01:13:59.792Z,9.17
2023-02-09T01:16:30.393Z,8.80
2023-02-09T01:19:00.658Z,9.23
2023-02-09T01:21:28.412Z,11.70
2023-02-09T01:23:56.387Z,10.37
2023-02-09T01:26:24.285Z,14.50
2023-02-09T01:28:54.287Z,13.03
2023-02-09T01:31:25.838Z,11.27
2023-02-09T01:33:54.434Z,12.30
2023-02-09T01:36:22.446Z,12.53
2023-02-09T01:38:50.315Z,11.73
2023-02-09T01:41:18.382Z,14.27
2023-02-09T01:43:51.124Z,9.37
2023-02-09T01:46:20.227Z,10.10
2023-02-09T01:48:48.810Z,10.93
2023-02-09T01:51:16.612Z,12.30
2023-02-09T01:53:44.525Z,12.33
2023-02-09T01:56:15.028Z,11.87
2023-02-09T01:58:42.770Z,11.80
2023-02-09T02:01:10.587Z,13.30
2023-02-09T02:03:39.758Z,9.73
2023-02-09T02:06:10.771Z,13.70
2023-02-09T02:08:41.491Z,11.07
2023-02-09T02:11:10.165Z,12.50
2023-02-09T02:13:37.847Z,10.87
2023-02-09T02:16:09.998Z,10.77
2023-02-09T02:18:48.803Z,12.63
2023-02-09T02:21:52.811Z,14.57
2023-02-09T02:24:48.857Z,16.50
2023-02-09T02:27:26.019Z,10.43
2023-02-09T02:30:04.632Z,12.63
2023-02-09T02:32:43.271Z,14.40
2023-02-09T02:35:16.843Z,11.67
2023-02-09T02:37:53.486Z,12.60
2023-02-09T02:40:27.677Z,13.07
2023-02-09T02:42:58.633Z,9.97
2023-02-09T02:45:35.240Z,11.80
2023-02-09T02:48:11.678Z,13.97
2023-02-09T02:50:43.142Z,11.70
2023-02-09T02:53:12.003Z,12.73
2023-02-09T02:55:40.310Z,13.37
2023-02-09T02:58:10.552Z,12.67
2023-02-09T03:00:40.920Z,11.03
2023-02-09T03:03:13.957Z,9.30
2023-02-09T03:05:43.164Z,15.70
2023-02-09T03:08:10.847Z,15.83
2023-02-09T03:10:39.838Z,12.73
2023-02-09T03:13:31.548Z,11.17
2023-02-09T03:16:10.042Z,13.17
2023-02-09T03:18:45.208Z,13.37
2023-02-09T03:21:16.426Z,12.43
2023-02-09T03:23:48.605Z,14.17
2023-02-09T03:26:20.463Z,12.47
2023-02-09T03:28:50.148Z,14.53
2023-02-09T03:31:17.892Z,13.10
2023-02-09T03:33:47.115Z,12.53
2023-02-09T03:36:18.143Z,13.57
2023-02-09T03:38:46.030Z,15.17
2023-02-09T03:41:13.765Z,12.03
2023-02-09T03:43:59.024Z,13.03
2023-02-09T03:46:26.842Z,12.63
2023-02-09T03:48:55.971Z,14.73
2023-02-09T03:51:23.693Z,12.67
2023-02-09T03:53:51.431Z,13.87
2023-02-09T03:56:19.050Z,13.87
2023-02-09T03:58:46.750Z,12.13
2023-02-09T04:01:14.456Z,14.67
2023-02-09T04:03:42.131Z,17.97
2023-02-09T04:06:11.188Z,13.80
2023-02-09T04:08:39.007Z,11.20
2023-02-09T04:11:06.822Z,14.20
2023-02-09T04:13:34.476Z,14.83
2023-02-09T04:16:02.245Z,13.73
2023-02-09T04:18:29.899Z,12.33
2023-02-09T04:20:57.603Z,12.83
2023-02-09T04:23:26.595Z,13.37
2023-02-09T04:25:54.326Z,17.57
2023-02-09T04:28:22.078Z,13.10
2023-02-09T04:30:53.096Z,13.37
2023-02-09T04:33:20.890Z,13.13
2023-02-09T04:35:49.003Z,13.10
2023-02-09T04:38:19.442Z,20.67
2023-02-09T04:40:49.626Z,14.17
2023-02-09T04:43:17.743Z,11.67
2023-02-09T04:45:45.582Z,14.90
2023-02-09T04:48:15.625Z,15.03
2023-02-09T04:50:43.868Z,11.97
2023-02-09T04:53:12.122Z,14.33
2023-02-09T04:55:39.994Z,15.27
2023-02-09T04:58:27.926Z,13.47
2023-02-09T05:00:56.187Z,14.80
2023-02-09T05:03:24.796Z,13.47
2023-02-09T05:05:55.807Z,14.93
2023-02-09T05:08:23.763Z,12.53
2023-02-09T05:10:51.994Z,12.00
2023-02-09T05:13:21.717Z,13.87
2023-02-09T05:15:50.026Z,13.53
2023-02-09T05:18:18.331Z,13.87
2023-02-09T05:20:46.622Z,16.03
2023-02-09T05:23:15.036Z,14.17
2023-02-09T05:25:43.055Z,13.00
2023-02-09T05:28:10.823Z,12.30
2023-02-09T05:30:39.970Z,15.47
2023-02-09T05:33:07.676Z,12.00
2023-02-09T05:35:36.091Z,11.20
2023-02-09T05:38:04.075Z,12.23
2023-02-09T05:40:31.747Z,14.67
2023-02-09T05:43:00.324Z,17.10
2023-02-09T05:45:28.131Z,13.23
2023-02-09T05:47:57.264Z,14.40
2023-02-09T05:50:25.021Z,11.07
2023-02-09T05:52:52.663Z,14.03
2023-02-09T05:55:20.393Z,12.67
2023-02-09T05:57:48.030Z,12.17
2023-02-09T06:00:16.755Z,13.20
2023-02-09T06:02:44.509Z,14.50
2023-02-09T06:05:13.554Z,14.13
2023-02-09T06:07:41.258Z,13.20
2023-02-09T06:10:09.434Z,12.93
2023-02-09T06:12:37.158Z,15.00
2023-02-09T06:15:05.608Z,14.67
2023-02-09T06:17:33.443Z,13.30
2023-02-09T06:20:01.082Z,14.80
2023-02-09T06:22:31.722Z,12.63
2023-02-09T06:24:59.515Z,11.80
2023-02-09T06:27:27.405Z,13.43
2023-02-09T06:29:55.108Z,14.30
2023-02-09T06:32:22.775Z,15.63
2023-02-09T06:34:50.400Z,11.37
2023-02-09T06:37:18.083Z,13.90
2023-02-09T06:39:47.209Z,15.00
2023-02-09T06:42:15.109Z,14.27
2023-02-09T06:44:42.856Z,15.40
2023-02-09T06:47:10.549Z,15.43
2023-02-09T06:49:38.239Z,13.73
2023-02-09T06:52:06.658Z,13.17
2023-02-09T06:54:34.360Z,13.00
2023-02-09T06:57:03.351Z,14.07
2023-02-09T06:59:31.015Z,13.43
2023-02-09T07:01:58.758Z,14.70
2023-02-09T07:04:26.502Z,14.43
2023-02-09T07:06:54.185Z,15.27
2023-02-09T07:09:21.896Z,13.87
2023-02-09T07:11:49.589Z,15.30
2023-02-09T07:14:18.684Z,16.10
2023-02-09T07:16:46.327Z,13.57
2023-02-09T07:19:14.196Z,12.47
2023-02-09T07:21:41.903Z,14.87
2023-02-09T07:24:09.614Z,16.33
2023-02-09T07:26:37.287Z,16.50
2023-02-09T07:29:04.967Z,13.20
2023-02-09T07:31:34.167Z,13.93
2023-02-09T07:34:01.999Z,20.03
2023-02-09T07:36:29.836Z,12.97
2023-02-09T07:38:57.903Z,11.40
2023-02-09T07:41:26.177Z,13.43
2023-02-09T07:43:53.935Z,13.40
2023-02-09T07:46:23.204Z,14.50
2023-02-09T07:48:52.237Z,15.97
2023-02-09T07:51:25.243Z,15.43
2023-02-09T07:53:53.515Z,12.33
2023-02-09T07:56:21.340Z,14.10
2023-02-09T07:58:49.292Z,15.87
2023-02-09T08:01:17.893Z,16.80
2023-02-09T08:03:46.891Z,13.50
2023-02-09T08:06:19.779Z,14.30
2023-02-09T08:08:48.447Z,12.13
2023-02-09T08:11:17.211Z,15.90
2023-02-09T08:13:45.008Z,17.77
2023-02-09T08:16:14.351Z,15.90
2023-02-09T08:18:45.170Z,16.83
2023-02-09T08:21:14.597Z,14.13
2023-02-09T08:23:45.428Z,17.00
2023-02-09T08:26:14.660Z,14.93
2023-02-09T08:28:44.907Z,17.10
2023-02-09T08:31:13.654Z,16.80
2023-02-09T08:33:41.507Z,13.40
2023-02-09T08:36:09.784Z,13.60
2023-02-09T08:38:37.517Z,12.57
2023-02-09T08:41:08.166Z,19.13
2023-02-09T08:43:36.365Z,15.00
2023-02-09T08:46:05.355Z,18.30
2023-02-09T08:48:35.690Z,15.90
2023-02-09T08:51:03.710Z,13.33
2023-02-09T08:53:31.534Z,15.17
2023-02-09T08:55:59.310Z,15.33
2023-02-09T08:58:30.212Z,14.57
2023-02-09T09:00:59.930Z,15.97
2023-02-09T09:03:31.313Z,15.90
2023-02-09T09:05:59.597Z,16.07
2023-02-09T09:08:27.566Z,12.47
2023-02-09T09:10:55.471Z,15.03
2023-02-09T09:13:24.875Z,16.53
2023-02-09T09:15:55.156Z,17.60
2023-02-09T09:18:24.070Z,18.90
2023-02-09T09:20:53.332Z,17.17
2023-02-09T09:23:21.605Z,14.97
2023-02-09T09:25:49.466Z,17.57
2023-02-09T09:28:17.627Z,15.00
2023-02-09T09:30:45.427Z,14.23
2023-02-09T09:33:14.522Z,15.53
2023-02-09T09:35:42.306Z,14.00
2023-02-09T09:38:09.971Z,19.77
2023-02-09T09:40:40.482Z,18.20
2023-02-09T09:43:15.065Z,15.67
2023-02-09T09:45:43.003Z,13.97
2023-02-09T09:48:23.078Z,14.57
2023-02-09T09:50:52.236Z,17.70
2023-02-09T09:53:28.647Z,17.07
2023-02-09T09:55:59.297Z,14.90
2023-02-09T09:58:28.830Z,15.17
2023-02-09T10:00:56.567Z,18.57
2023-02-09T10:03:35.321Z,16.90
2023-02-09T10:06:13.899Z,16.17
2023-02-09T10:08:45.158Z,15.10
2023-02-09T10:11:14.848Z,15.17
2023-02-09T10:13:44.977Z,16.93
2023-02-09T10:16:17.260Z,20.03
2023-02-09T10:18:46.602Z,17.40
2023-02-09T10:21:16.094Z,12.73
2023-02-09T10:23:45.824Z,16.27
2023-02-09T10:26:24.628Z,15.27
2023-02-09T10:28:54.339Z,17.80
2023-02-09T10:31:25.475Z,13.70
2023-02-09T10:33:58.239Z,16.13
2023-02-09T10:36:32.332Z,18.50
2023-02-09T10:39:15.387Z,16.03
2023-02-09T10:41:44.776Z,14.47
2023-02-09T10:44:19.494Z,16.13
2023-02-09T10:46:48.090Z,14.37
2023-02-09T10:49:31.450Z,15.20
2023-02-09T10:52:16.826Z,15.47
2023-02-09T10:54:45.975Z,18.53
2023-02-09T10:57:28.629Z,16.77
2023-02-09T10:59:58.302Z,13.17
2023-02-09T11:02:33.731Z,14.57
2023-02-09T11:05:02.928Z,15.10
2023-02-09T11:07:34.551Z,17.90
2023-02-09T11:10:03.510Z,16.27
2023-02-09T11:12:31.235Z,16.20
2023-02-09T11:14:58.941Z,17.33
2023-02-09T11:17:28.159Z,13.97
2023-02-09T11:20:15.504Z,16.37
2023-02-09T11:23:03.863Z,14.97
2023-02-09T11:25:34.454Z,13.83
2023-02-09T11:28:22.861Z,13.50
2023-02-09T11:31:16.777Z,18.03
2023-02-09T11:33:53.363Z,16.10
2023-02-09T11:36:37.460Z,14.50
2023-02-09T11:39:09.467Z,15.27
2023-02-09T11:41:57.580Z,17.23
2023-02-09T11:44:31.190Z,16.87
2023-02-09T11:47:02.802Z,17.47
2023-02-09T11:49:31.016Z,18.00
2023-02-09T11:52:00.718Z,12.77
2023-02-09T11:54:31.411Z,14.63
2023-02-09T11:57:02.159Z,15.37
2023-02-09T11:59:33.804Z,18.03
2023-02-09T12:02:08.397Z,15.43
2023-02-09T12:04:43.596Z,20.37
2023-02-09T12:07:17.291Z,17.00
2023-02-09T12:09:48.161Z,19.00
2023-02-09T12:12:23.367Z,18.63
2023-02-09T12:15:09.956Z,17.20
2023-02-09T12:17:42.741Z,21.67
2023-02-09T12:20:31.365Z,19.97
2023-02-09T12:23:07.794Z,19.70
2023-02-09T12:25:54.556Z,20.00
2023-02-09T12:28:47.364Z,20.00
2023-02-09T12:31:24.306Z,20.63
2023-02-09T12:34:15.799Z,19.13
2023-02-09T12:37:18.022Z,18.83
2023-02-09T12:40:29.912Z,23.80
2023-02-09T12:43:30.342Z,17.97
2023-02-09T12:46:21.015Z,21.23
2023-02-09T12:48:54.895Z,24.33
2023-02-09T12:51:40.346Z,26.63
2023-02-09T12:54:32.872Z,22.30
2023-02-09T12:57:33.747Z,21.07
2023-02-09T13:00:31.076Z,21.67
2023-02-09T13:03:11.441Z,20.20
2023-02-09T13:05:44.576Z,19.93
2023-02-09T13:08:25.556Z,19.23
2023-02-09T13:10:57.736Z,23.43
2023-02-09T13:13:34.320Z,20.30
2023-02-09T13:16:41.607Z,19.80
2023-02-09T13:19:18.182Z,20.43
2023-02-09T13:21:57.733Z,18.93
2023-02-09T13:24:36.545Z,17.83
2023-02-09T13:27:04.755Z,22.30
2023-02-09T13:29:33.245Z,19.93
2023-02-09T13:32:08.282Z,21.63
2023-02-09T13:34:39.368Z,18.93
2023-02-09T13:37:15.415Z,20.53
2023-02-09T13:39:44.138Z,17.13
2023-02-09T13:42:20.106Z,18.63
2023-02-09T13:44:51.614Z,20.03
2023-02-09T13:47:21.042Z,19.67
2023-02-09T13:50:00.077Z,18.50
2023-02-09T13:52:28.803Z,17.20
2023-02-09T13:54:56.426Z,19.30
2023-02-09T13:57:33.169Z,20.40
2023-02-09T14:00:08.648Z,16.13
2023-02-09T14:02:38.166Z,15.77
2023-02-09T14:05:07.631Z,17.33
2023-02-09T14:07:37.772Z,16.57
2023-02-09T14:10:12.301Z,18.00
2023-02-09T14:12:52.034Z,19.07
2023-02-09T14:15:38.674Z,18.00
2023-02-09T14:18:23.399Z,17.27
2023-02-09T14:21:19.581Z,16.73
2023-02-09T14:23:49.308Z,18.20
2023-02-09T14:26:23.693Z,24.53
2023-02-09T14:28:54.126Z,19.93
2023-02-09T14:31:23.823Z,19.70
2023-02-09T14:33:55.560Z,19.63
2023-02-09T14:36:25.942Z,19.90
2023-02-09T14:38:54.179Z,17.27
2023-02-09T14:41:29.818Z,17.30
2023-02-09T14:43:59.931Z,19.63
2023-02-09T14:46:27.723Z,17.20
2023-02-09T14:48:59.542Z,18.67
2023-02-09T14:51:28.633Z,17.93
2023-02-09T14:53:56.336Z,22.03
2023-02-09T14:56:25.873Z,20.20
2023-02-09T14:58:53.548Z,19.63
2023-02-09T15:01:21.308Z,18.23
2023-02-09T15:03:48.948Z,21.63
2023-02-09T15:06:18.160Z,21.30
2023-02-09T15:08:45.837Z,18.80
2023-02-09T15:11:42.191Z,18.90
2023-02-09T15:14:11.025Z,17.93
2023-02-09T15:16:38.754Z,17.90
2023-02-09T15:19:11.842Z,23.13
2023-02-09T15:21:40.904Z,20.60
2023-02-09T15:24:08.612Z,20.43
2023-02-09T15:26:37.517Z,19.77
2023-02-09T15:29:11.745Z,22.13
2023-02-09T15:31:39.494Z,18.33
2023-02-09T15:34:07.495Z,22.27
2023-02-09T15:36:35.380Z,19.53
2023-02-09T15:39:05.135Z,21.10
2023-02-09T15:41:50.535Z,18.27
2023-02-09T15:44:37.320Z,23.30
2023-02-09T15:47:23.220Z,18.57
2023-02-09T15:49:51.365Z,22.30
2023-02-09T15:52:19.405Z,22.83
2023-02-09T15:54:49.845Z,24.03
2023-02-09T15:57:17.494Z,20.57
2023-02-09T15:59:46.370Z,23.43
2023-02-09T16:02:14.872Z,21.07
2023-02-09T16:04:42.522Z,48.07
2023-02-09T16:07:12.041Z,28.57
2023-02-09T16:09:40.848Z,20.27
2023-02-09T16:12:11.996Z,23.43
2023-02-09T16:14:39.911Z,19.87
2023-02-09T16:17:08.791Z,21.70
2023-02-09T16:19:36.509Z,20.27
2023-02-09T16:22:05.380Z,25.67
2023-02-09T16:24:43.191Z,20.93
2023-02-09T16:27:16.290Z,22.73
2023-02-09T16:29:44.117Z,21.77
2023-02-09T16:32:17.011Z,30.00
2023-02-09T16:34:44.720Z,26.67
2023-02-09T16:37:15.207Z,20.73
2023-02-09T16:39:43.501Z,23.53
2023-02-09T16:42:14.872Z,19.73
2023-02-09T16:44:43.035Z,24.97
2023-02-09T16:47:17.315Z,29.43
2023-02-09T16:49:49.723Z,92.13
2023-02-09T16:52:20.414Z,27.87
2023-02-09T16:54:50.080Z,28.47
2023-02-09T16:57:20.772Z,24.03
2023-02-09T16:59:48.423Z,26.43
2023-02-09T17:02:29.836Z,22.40
2023-02-09T17:04:58.006Z,24.33
2023-02-09T17:07:30.169Z,27.57
2023-02-09T17:09:59.903Z,26.23
2023-02-09T17:12:29.069Z,25.40
2023-02-09T17:14:56.824Z,26.17
2023-02-09T17:17:24.566Z,22.60
2023-02-09T17:19:52.893Z,26.57
2023-02-09T17:22:20.543Z,27.10
2023-02-09T17:24:48.493Z,21.77
2023-02-09T17:27:16.128Z,28.43
2023-02-09T17:29:45.216Z,23.13
2023-02-09T17:32:15.735Z,25.90
2023-02-09T17:34:43.749Z,26.13
2023-02-09T17:37:14.518Z,28.53
2023-02-09T17:39:42.238Z,24.37
2023-02-09T17:42:20.675Z,25.37
2023-02-09T17:44:50.811Z,31.53
2023-02-09T17:47:20.612Z,28.03
2023-02-09T17:49:48.445Z,29.40
2023-02-09T17:52:17.984Z,25.87
2023-02-09T17:54:46.499Z,28.30
2023-02-09T17:57:15.009Z,27.43
2023-02-09T17:59:42.820Z,29.87
2023-02-09T18:02:16.560Z,26.10
2023-02-09T18:04:44.266Z,27.03
2023-02-09T18:07:12.746Z,29.40
2023-02-09T18:09:40.394Z,26.73
2023-02-09T18:12:11.940Z,31.60
2023-02-09T18:14:40.010Z,29.63
2023-02-09T18:17:07.756Z,32.23
2023-02-09T18:19:36.893Z,30.10
2023-02-09T18:22:05.009Z,27.43
2023-02-09T18:24:34.137Z,31.50
2023-02-09T18:27:02.069Z,34.67
2023-02-09T18:29:30.224Z,27.83
2023-02-09T18:31:58.277Z,30.27
2023-02-09T18:34:26.109Z,26.60
2023-02-09T18:36:55.209Z,35.13
2023-02-09T18:39:22.922Z,27.97
2023-02-09T18:41:54.432Z,27.63
2023-02-09T18:44:24.377Z,30.63
2023-02-09T18:46:52.237Z,34.93
2023-02-09T18:49:19.962Z,30.30
2023-02-09T18:51:47.835Z,42.83
2023-02-09T18:54:16.938Z,35.20
2023-02-09T18:56:44.644Z,31.27
2023-02-09T18:59:12.415Z,31.00
2023-02-09T19:01:41.025Z,35.57
2023-02-09T19:04:08.963Z,33.10
2023-02-09T19:06:36.679Z,35.67
2023-02-09T19:09:04.542Z,32.67
2023-02-09T19:11:33.604Z,37.13
2023-02-09T19:14:18.852Z,28.10
2023-02-09T19:16:46.554Z,35.47
2023-02-09T19:19:16.071Z,31.77
2023-02-09T19:21:43.767Z,33.30
2023-02-09T19:24:11.440Z,37.93
2023-02-09T19:26:40.530Z,29.70
2023-02-09T19:29:08.217Z,33.37
2023-02-09T19:31:35.954Z,35.10
2023-02-09T19:34:03.704Z,38.03
2023-02-09T19:36:31.466Z,35.63
2023-02-09T19:39:00.214Z,36.43
2023-02-09T19:41:28.276Z,31.57
2023-02-09T19:43:57.918Z,39.53
2023-02-09T19:46:26.234Z,33.53
2023-02-09T19:48:54.634Z,39.03
2023-02-09T19:51:22.738Z,39.43
2023-02-09T19:53:50.861Z,35.13
2023-02-09T19:56:20.757Z,35.33
2023-02-09T19:58:48.455Z,34.20
2023-02-09T20:01:17.827Z,37.07
2023-02-09T20:03:45.525Z,40.23
2023-02-09T20:06:15.006Z,41.93
2023-02-09T20:08:42.920Z,38.53
2023-02-09T20:11:13.127Z,44.13
2023-02-09T20:13:40.905Z,39.03
2023-02-09T20:16:09.484Z,50.67
2023-02-09T20:18:40.119Z,39.80
2023-02-09T20:21:09.250Z,39.47
2023-02-09T20:23:37.364Z,40.83
2023-02-09T20:26:10.804Z,40.53
2023-02-09T20:28:38.891Z,42.63
2023-02-09T20:31:07.461Z,51.50
2023-02-09T20:33:35.649Z,40.07
2023-02-09T20:36:07.535Z,48.37
2023-02-09T20:38:36.477Z,42.50
2023-02-09T20:41:07.023Z,44.57
2023-02-09T20:43:51.942Z,45.33
2023-02-09T20:46:39.271Z,48.30
2023-02-09T20:49:07.359Z,54.40
2023-02-09T20:51:36.372Z,44.47
2023-02-09T20:54:04.740Z,49.77
2023-02-09T20:56:32.538Z,51.27
2023-02-09T20:59:00.319Z,51.77
2023-02-09T21:01:28.147Z,54.07
2023-02-09T21:03:56.878Z,54.07
2023-02-09T21:06:24.587Z,47.70
2023-02-09T21:08:54.169Z,56.10
2023-02-09T21:11:21.931Z,54.17
2023-02-09T21:13:49.668Z,54.33
2023-02-09T21:16:17.730Z,51.13
2023-02-09T21:18:45.849Z,54.63
2023-02-09T21:21:15.860Z,54.80
2023-02-09T21:23:43.752Z,49.73
2023-02-09T21:26:14.847Z,59.13
2023-02-09T21:28:43.691Z,55.77
2023-02-09T21:31:12.395Z,57.67
2023-02-09T21:33:40.043Z,60.27
2023-02-09T21:36:08.692Z,59.30
2023-02-09T21:38:41.374Z,59.43
2023-02-09T21:41:30.804Z,67.00
2023-02-09T21:44:00.261Z,63.97
2023-02-09T21:46:28.425Z,61.27
2023-02-09T21:48:56.296Z,68.30
2023-02-09T21:51:24.362Z,69.20
2023-02-09T21:53:52.531Z,63.93
2023-02-09T21:56:20.535Z,65.97
2023-02-09T21:58:48.198Z,71.37
2023-02-09T22:01:17.289Z,59.00
2023-02-09T22:03:48.905Z,68.80
2023-02-09T22:06:16.855Z,70.60
2023-02-09T22:08:44.624Z,77.57
2023-02-09T22:11:12.375Z,64.83
2023-02-09T22:13:40.148Z,71.77
2023-02-09T22:16:08.383Z,67.60
2023-02-09T22:18:37.791Z,68.27
2023-02-09T22:21:07.609Z,69.90
2023-02-09T22:23:35.357Z,82.47
2023-02-09T22:26:03.683Z,73.63
2023-02-09T22:28:31.459Z,72.97
2023-02-09T22:31:06.508Z,74.23
2023-02-09T22:33:34.415Z,80.60
2023-02-09T22:36:07.197Z,77.83
2023-02-09T22:38:35.079Z,78.10
2023-02-09T22:41:07.030Z,80.37
2023-02-09T22:43:34.842Z,80.47
2023-02-09T22:46:02.622Z,87.07
2023-02-09T22:48:30.287Z,89.63
2023-02-09T22:50:57.990Z,84.23
2023-02-09T22:53:27.484Z,87.10
2023-02-09T22:55:55.127Z,80.87
2023-02-09T22:58:22.823Z,86.70
2023-02-09T23:00:50.961Z,83.97
2023-02-09T23:03:18.606Z,93.13
2023-02-09T23:05:46.608Z,97.23
2023-02-09T23:08:14.428Z,93.43
2023-02-09T23:10:43.502Z,92.83
2023-02-09T23:13:11.259Z,91.90
2023-02-09T23:15:39.006Z,102.97
2023-02-09T23:18:06.818Z,97.77
2023-02-09T23:20:34.547Z,89.23
2023-02-09T23:23:06.503Z,98.70
2023-02-09T23:25:34.237Z,96.83
2023-02-09T23:28:03.475Z,86.97
2023-02-09T23:30:31.256Z,101.00
2023-02-09T23:32:58.944Z,100.13
2023-02-09T23:35:26.708Z,97.03
2023-02-09T23:37:54.364Z,86.17
2023-02-09T23:40:22.059Z,97.40
2023-02-09T23:42:50.123Z,104.80
2023-02-09T23:45:19.127Z,99.27
2023-02-09T23:47:46.877Z,99.60
2023-02-09T23:50:14.675Z,109.77
2023-02-09T23:52:42.340Z,102.30
2023-02-09T23:55:10.147Z,114.17
2023-02-09T23:57:37.816Z,103.20
